Pagina principale
METAR-TAF:

METAR-TAF

Aeroporti :

Aeroporto di Cagliari-Elmas

Cagliari, Italia

latitudine: 39-15N, longitudine: 009-04E, altezza: 4 m

Osservazione

Il bollettino è stato emesso 15 minuti fa, alle 22:50 UTC
Vento 5 kt da nord
Temperature 14°C
Umidità 67%
Pressione 1015 hPa
Visibilità 10 km o più
nessuna nube inferiore a 1500 m e nessun cumulonembo

METAR: LIEE 152250Z 36005KT CAVOK 14/08 Q1015

Ora: 01:05 (23:05 UTC)

Previsione

Il bollettino è stato emesso 6 ore e 5 minuti fa, alle 17:00 UTC
Previsione valida dal 15 alle 18 UTC al 16 alle 18 UTC
Vento 14 kt da nord/nord-ovest
Visibilità 10 km o più
Nubi sparse ad un'altezza di 4000 ft
Evoluzione graduale
dal 15 alle 18 UTC al 15 alle 20 UTC
Vento 5 kt da direzioni variabili
Evoluzione graduale
dal 16 alle 08 UTC al 16 alle 10 UTC
Vento 10 kt da sud/sud-est

TAF: LIEE 151700Z 1518/1618 33014KT 9999 SCT040 BECMG 1518/1520 VRB05KT BECMG 1608/1610 16010KT

Osservazioni e previsioni meteorologiche di più di 4000 aeroporti (messaggi METAR e TAF).

Le stazioni disponibili sono rappresentate dai dischi gialli e rossi sulla carta.

Puntare il mouse per vedere il nome della stazione.

Clicca sopra per visualizzare le osservazioni e previsioni meteorologiche.

Per cambiare la mappa : fare clic sui pulsanti verdi con una croce nera per ingrandire, il pulsante verde con un trattino per diminuire, o sulla freccia verde per le mappe adiacenti.


METAR-TAF: